createdAt,value
2022-07-29T00:02:29.945Z,11.42
2022-07-29T00:04:56.914Z,11.35
2022-07-29T00:07:23.579Z,11.36
2022-07-29T00:09:51.940Z,11.37
2022-07-29T00:12:25.549Z,11.31
2022-07-29T00:14:57.015Z,11.32
2022-07-29T00:17:24.540Z,11.28
2022-07-29T00:19:51.525Z,11.32
2022-07-29T00:22:18.655Z,11.22
2022-07-29T00:24:45.357Z,11.16
2022-07-29T00:27:12.427Z,11.19
2022-07-29T00:29:39.060Z,11.14
2022-07-29T00:32:05.928Z,11.11
2022-07-29T00:34:51.445Z,11.11
2022-07-29T00:37:18.219Z,11.04
2022-07-29T00:39:45.002Z,11.07
2022-07-29T00:42:11.653Z,11.12
2022-07-29T00:44:39.957Z,11.05
2022-07-29T00:47:07.302Z,11.02
2022-07-29T00:49:34.996Z,10.97
2022-07-29T00:52:05.180Z,10.97
2022-07-29T00:54:32.025Z,10.96
2022-07-29T00:57:02.591Z,10.93
2022-07-29T00:59:34.858Z,10.92
2022-07-29T01:02:05.152Z,10.94
2022-07-29T01:04:32.331Z,10.99
2022-07-29T01:06:59.583Z,10.92
2022-07-29T01:09:40.875Z,10.89
2022-07-29T01:12:19.451Z,10.83
2022-07-29T01:14:46.999Z,10.83
2022-07-29T01:17:20.642Z,10.79
2022-07-29T01:19:59.782Z,10.76
2022-07-29T01:22:56.328Z,10.77
2022-07-29T01:26:08.560Z,10.78
2022-07-29T01:28:59.647Z,10.74
2022-07-29T01:31:32.798Z,10.71
2022-07-29T01:34:05.583Z,10.70
2022-07-29T01:36:36.405Z,10.69
2022-07-29T01:39:12.732Z,10.70
2022-07-29T01:41:51.693Z,10.66
2022-07-29T01:44:21.674Z,10.64
2022-07-29T01:46:53.608Z,10.65
2022-07-29T01:49:28.571Z,10.61
2022-07-29T01:52:00.519Z,10.61
2022-07-29T01:54:35.905Z,10.60
2022-07-29T01:57:27.633Z,10.55
2022-07-29T01:59:55.292Z,10.51
2022-07-29T02:02:23.100Z,10.51
2022-07-29T02:04:50.760Z,10.52
2022-07-29T02:07:21.356Z,10.49
2022-07-29T02:09:49.134Z,10.47
2022-07-29T02:12:17.808Z,10.42
2022-07-29T02:14:52.898Z,10.45
2022-07-29T02:17:25.071Z,10.42
2022-07-29T02:19:53.769Z,10.39
2022-07-29T02:22:20.776Z,10.48
2022-07-29T02:24:48.414Z,10.52
2022-07-29T02:27:15.288Z,10.44
2022-07-29T02:29:45.735Z,10.45
2022-07-29T02:32:15.054Z,10.43
2022-07-29T02:34:42.679Z,10.41
2022-07-29T02:37:11.361Z,10.39
2022-07-29T02:39:38.677Z,10.38
2022-07-29T02:42:08.858Z,10.47
2022-07-29T02:44:35.658Z,10.44
2022-07-29T02:47:20.336Z,10.41
2022-07-29T02:49:53.934Z,10.47
2022-07-29T02:52:25.907Z,10.46
2022-07-29T02:55:13.865Z,10.41
2022-07-29T02:57:54.390Z,10.41
2022-07-29T03:00:23.925Z,10.56
2022-07-29T03:02:53.761Z,10.53
2022-07-29T03:05:21.838Z,10.55
2022-07-29T03:07:58.375Z,10.55
2022-07-29T03:10:27.370Z,10.58
2022-07-29T03:12:55.469Z,10.62
2022-07-29T03:15:22.776Z,10.65
2022-07-29T03:17:52.359Z,10.64
2022-07-29T03:20:19.470Z,10.64
2022-07-29T03:22:49.138Z,10.65
2022-07-29T03:25:17.879Z,10.69
2022-07-29T03:27:44.946Z,10.66
2022-07-29T03:30:18.449Z,10.65
2022-07-29T03:32:52.153Z,10.66
2022-07-29T03:35:23.629Z,10.69
2022-07-29T03:37:50.579Z,10.78
2022-07-29T03:40:24.528Z,10.80
2022-07-29T03:43:13.236Z,10.78
2022-07-29T03:45:40.580Z,10.84
2022-07-29T03:48:10.000Z,10.89
2022-07-29T03:50:36.977Z,10.90
2022-07-29T03:53:03.885Z,10.91
2022-07-29T03:55:35.019Z,10.93
2022-07-29T03:58:03.075Z,11.04
2022-07-29T04:00:30.346Z,11.12
2022-07-29T04:02:57.839Z,11.14
2022-07-29T04:05:24.490Z,11.16
2022-07-29T04:07:51.123Z,11.26
2022-07-29T04:10:30.611Z,11.36
2022-07-29T04:13:00.311Z,11.36
2022-07-29T04:15:30.905Z,11.39
2022-07-29T04:17:57.930Z,11.47
2022-07-29T04:20:24.646Z,11.48
2022-07-29T04:22:51.552Z,11.65
2022-07-29T04:25:18.401Z,11.65
2022-07-29T04:28:03.364Z,11.73
2022-07-29T04:30:36.206Z,11.80
2022-07-29T04:33:08.196Z,11.96
2022-07-29T04:35:38.316Z,12.00
2022-07-29T04:38:06.772Z,12.15
2022-07-29T04:40:34.176Z,12.23
2022-07-29T04:43:03.313Z,12.26
2022-07-29T04:45:32.813Z,12.44
2022-07-29T04:47:59.558Z,12.47
2022-07-29T04:50:26.695Z,12.53
2022-07-29T04:52:53.478Z,12.61
2022-07-29T04:55:20.461Z,12.77
2022-07-29T04:57:47.232Z,12.84
2022-07-29T05:00:14.348Z,12.89
2022-07-29T05:02:41.288Z,12.98
2022-07-29T05:05:08.568Z,13.18
2022-07-29T05:07:35.616Z,13.31
2022-07-29T05:10:02.473Z,13.49
2022-07-29T05:12:29.327Z,13.41
2022-07-29T05:14:56.244Z,13.69
2022-07-29T05:17:23.173Z,13.77
2022-07-29T05:19:52.631Z,13.92
2022-07-29T05:22:20.650Z,14.05
2022-07-29T05:24:48.219Z,14.19
2022-07-29T05:27:15.095Z,14.33
2022-07-29T05:29:43.983Z,14.46
2022-07-29T05:32:15.298Z,14.69
2022-07-29T05:34:51.075Z,14.81
2022-07-29T05:37:24.954Z,15.05
2022-07-29T05:39:56.648Z,15.26
2022-07-29T05:42:25.539Z,15.59
2022-07-29T05:44:52.605Z,16.21
2022-07-29T05:47:19.693Z,16.26
2022-07-29T05:49:49.005Z,16.24
2022-07-29T05:52:15.936Z,16.44
2022-07-29T05:54:43.105Z,16.52
2022-07-29T05:57:10.659Z,16.71
2022-07-29T05:59:38.026Z,16.54
2022-07-29T06:02:06.158Z,16.51
2022-07-29T06:04:34.059Z,16.54
2022-07-29T06:07:03.655Z,17.36
2022-07-29T06:09:30.607Z,17.95
2022-07-29T06:11:59.791Z,18.07
2022-07-29T06:14:29.342Z,18.07
2022-07-29T06:16:56.676Z,18.14
2022-07-29T06:19:27.105Z,18.22
2022-07-29T06:21:53.908Z,18.53
2022-07-29T06:24:21.029Z,18.09
2022-07-29T06:26:50.864Z,17.63
2022-07-29T06:29:18.180Z,17.71
2022-07-29T06:31:45.057Z,17.99
2022-07-29T06:34:12.004Z,18.27
2022-07-29T06:36:39.706Z,18.51
2022-07-29T06:39:08.601Z,18.51
2022-07-29T06:41:36.623Z,18.61
2022-07-29T06:44:05.661Z,18.61
2022-07-29T06:46:33.310Z,18.61
2022-07-29T06:49:02.802Z,18.38
2022-07-29T06:51:30.076Z,18.11
2022-07-29T06:54:02.101Z,17.95
2022-07-29T06:56:39.073Z,17.83
2022-07-29T06:59:11.367Z,17.88
2022-07-29T07:01:41.023Z,17.83
2022-07-29T07:04:12.252Z,17.95
2022-07-29T07:06:39.245Z,18.39
2022-07-29T07:09:06.272Z,18.92
2022-07-29T07:11:33.318Z,19.42
2022-07-29T07:14:03.504Z,19.67
2022-07-29T07:16:32.581Z,19.88
2022-07-29T07:18:59.639Z,20.08
2022-07-29T07:21:26.571Z,20.11
2022-07-29T07:23:57.241Z,20.14
2022-07-29T07:26:24.139Z,20.09
2022-07-29T07:28:51.117Z,20.17
2022-07-29T07:31:18.564Z,20.10
2022-07-29T07:33:45.621Z,20.00
2022-07-29T07:36:12.506Z,19.94
2022-07-29T07:38:39.504Z,19.87
2022-07-29T07:41:06.384Z,19.92
2022-07-29T07:43:33.259Z,20.15
2022-07-29T07:46:01.227Z,20.28
2022-07-29T07:48:28.308Z,20.58
2022-07-29T07:50:55.180Z,20.56
2022-07-29T07:53:22.925Z,20.65
2022-07-29T07:58:37.311Z,21.28
2022-07-29T08:01:04.411Z,21.42
2022-07-29T08:03:31.374Z,21.53
2022-07-29T08:05:58.776Z,21.58
2022-07-29T08:08:25.799Z,21.97
2022-07-29T08:10:57.191Z,22.19
2022-07-29T08:13:28.349Z,21.75
2022-07-29T08:15:59.269Z,21.80
2022-07-29T08:18:30.803Z,21.88
2022-07-29T08:20:58.916Z,21.82
2022-07-29T08:23:31.647Z,21.85
2022-07-29T08:26:14.001Z,21.95
2022-07-29T08:28:43.002Z,22.24
2022-07-29T08:31:09.850Z,22.65
2022-07-29T08:33:39.098Z,22.94
2022-07-29T08:36:07.129Z,22.99
2022-07-29T08:38:33.945Z,22.93
2022-07-29T08:41:04.247Z,23.40
2022-07-29T08:43:31.129Z,23.82
2022-07-29T08:45:58.330Z,24.37
2022-07-29T08:48:25.943Z,24.94
2022-07-29T08:50:59.290Z,24.87
2022-07-29T08:53:28.256Z,24.85
2022-07-29T08:55:56.105Z,25.44
2022-07-29T08:58:24.711Z,25.80
2022-07-29T09:00:55.784Z,25.61
2022-07-29T09:03:31.333Z,25.82
2022-07-29T09:05:59.716Z,26.19
2022-07-29T09:08:27.118Z,26.05
2022-07-29T09:10:54.592Z,26.13
2022-07-29T09:13:23.528Z,26.36
2022-07-29T09:15:52.330Z,25.95
2022-07-29T09:18:39.160Z,26.16
2022-07-29T09:21:26.330Z,25.77
2022-07-29T09:24:10.928Z,25.97
2022-07-29T09:26:48.322Z,26.36
2022-07-29T09:29:19.771Z,26.84
2022-07-29T09:31:51.860Z,26.55
2022-07-29T09:34:27.962Z,26.54
2022-07-29T09:36:55.891Z,26.22
2022-07-29T09:39:37.571Z,26.29
2022-07-29T09:42:07.672Z,26.10
2022-07-29T09:44:51.030Z,25.75
2022-07-29T09:47:19.695Z,26.20
2022-07-29T09:50:00.497Z,26.49
2022-07-29T09:52:29.042Z,26.91
2022-07-29T09:55:10.013Z,27.00
2022-07-29T09:57:41.487Z,27.13
2022-07-29T10:00:11.180Z,27.24
2022-07-29T10:02:40.182Z,27.74
2022-07-29T10:05:18.368Z,28.37
2022-07-29T10:07:49.407Z,27.64
2022-07-29T10:10:27.967Z,27.96
2022-07-29T10:13:07.101Z,27.99
2022-07-29T10:15:42.003Z,27.44
2022-07-29T10:18:13.057Z,27.73
2022-07-29T10:20:40.701Z,28.05
2022-07-29T10:23:07.757Z,27.74
2022-07-29T10:25:34.881Z,26.87
2022-07-29T10:28:01.846Z,26.83
2022-07-29T10:30:28.789Z,26.68
2022-07-29T10:33:20.602Z,26.62
2022-07-29T10:36:13.235Z,26.12
2022-07-29T10:38:53.291Z,26.05
2022-07-29T10:41:48.098Z,26.24
2022-07-29T10:44:23.188Z,26.41
2022-07-29T10:46:54.947Z,26.84
2022-07-29T10:49:30.381Z,27.15
2022-07-29T10:52:03.487Z,27.32
2022-07-29T10:54:35.847Z,27.14
2022-07-29T10:57:15.794Z,26.90
2022-07-29T10:59:45.427Z,26.71
2022-07-29T11:02:42.117Z,26.76
2022-07-29T11:05:15.671Z,26.75
2022-07-29T11:08:20.197Z,27.56
2022-07-29T11:10:54.986Z,27.59
2022-07-29T11:13:49.001Z,27.38
2022-07-29T11:16:17.520Z,26.93
2022-07-29T11:19:13.123Z,27.26
2022-07-29T11:21:53.378Z,27.55
2022-07-29T11:24:29.139Z,28.00
2022-07-29T11:27:23.478Z,27.74
2022-07-29T11:30:04.341Z,27.85
2022-07-29T11:32:48.779Z,28.04
2022-07-29T11:35:38.164Z,27.65
2022-07-29T11:41:19.120Z,27.14
2022-07-29T11:43:54.614Z,27.11
2022-07-29T11:46:40.278Z,27.20
2022-07-29T11:49:10.238Z,27.33
2022-07-29T11:51:48.624Z,27.61
2022-07-29T11:57:13.189Z,27.47
2022-07-29T11:59:44.979Z,27.60
2022-07-29T12:02:37.104Z,27.67
2022-07-29T12:05:00.331Z,28.11
2022-07-29T12:07:01.814Z,27.47
2022-07-29T12:07:34.787Z,28.54
2022-07-29T12:10:02.530Z,29.04
2022-07-29T12:12:29.475Z,29.35
2022-07-29T12:14:56.363Z,29.66
2022-07-29T12:17:30.638Z,29.94
2022-07-29T12:19:58.252Z,29.87
2022-07-29T12:22:33.244Z,28.92
2022-07-29T12:25:30.302Z,28.49
2022-07-29T12:28:02.413Z,29.26
2022-07-29T12:30:39.634Z,29.22
2022-07-29T12:33:16.266Z,29.68
2022-07-29T12:35:45.775Z,30.01
2022-07-29T12:38:15.055Z,29.74
2022-07-29T12:40:42.122Z,29.23
2022-07-29T12:43:19.757Z,28.83
2022-07-29T12:45:54.389Z,28.41
2022-07-29T12:48:57.661Z,28.45
2022-07-29T12:51:35.493Z,28.22
2022-07-29T12:54:08.018Z,27.41
2022-07-29T12:56:43.697Z,27.35
2022-07-29T12:59:20.274Z,27.72
2022-07-29T13:01:50.208Z,27.51
2022-07-29T13:04:28.069Z,27.88
2022-07-29T13:07:10.366Z,28.11
2022-07-29T13:09:42.603Z,28.19
2022-07-29T13:12:11.137Z,28.10
2022-07-29T13:14:42.671Z,27.98
2022-07-29T13:17:19.137Z,28.20
2022-07-29T13:19:47.898Z,28.53
2022-07-29T13:22:19.492Z,28.47
2022-07-29T13:24:53.878Z,28.37
2022-07-29T13:27:22.689Z,28.20
2022-07-29T13:29:52.270Z,28.58
2022-07-29T13:32:27.687Z,28.69
2022-07-29T13:35:01.736Z,28.91
2022-07-29T13:37:35.072Z,29.37
2022-07-29T13:40:04.079Z,29.45
2022-07-29T13:42:31.491Z,29.32
2022-07-29T13:44:58.483Z,28.86
2022-07-29T13:47:32.849Z,28.92
2022-07-29T13:50:01.229Z,28.64
2022-07-29T13:52:28.229Z,28.92
2022-07-29T13:54:54.907Z,28.66
2022-07-29T13:57:21.546Z,28.93
2022-07-29T13:59:52.005Z,28.84
2022-07-29T14:02:20.804Z,28.94
2022-07-29T14:04:47.625Z,29.02
2022-07-29T14:07:16.224Z,28.64
2022-07-29T14:09:43.586Z,28.04
2022-07-29T14:12:10.537Z,27.89
2022-07-29T14:14:37.617Z,27.99
2022-07-29T14:17:07.251Z,27.89
2022-07-29T14:19:36.671Z,27.98
2022-07-29T14:22:10.770Z,28.35
2022-07-29T14:24:37.966Z,28.28
2022-07-29T14:27:05.798Z,27.93
2022-07-29T14:29:36.800Z,28.01
2022-07-29T14:32:06.113Z,28.21
2022-07-29T14:34:34.439Z,28.34
2022-07-29T14:37:01.232Z,28.55
2022-07-29T14:39:31.845Z,28.69
2022-07-29T14:41:59.763Z,28.58
2022-07-29T14:44:32.044Z,28.54
2022-07-29T14:47:00.715Z,28.60
2022-07-29T14:49:28.773Z,28.79
2022-07-29T14:51:55.847Z,28.61
2022-07-29T14:54:22.900Z,28.09
2022-07-29T14:56:51.924Z,27.96
2022-07-29T14:59:18.956Z,27.77
2022-07-29T15:01:46.804Z,27.45
2022-07-29T15:04:13.647Z,27.44
2022-07-29T15:06:40.370Z,27.38
2022-07-29T15:09:07.073Z,27.63
2022-07-29T15:11:38.297Z,27.86
2022-07-29T15:14:06.696Z,27.92
2022-07-29T15:16:33.994Z,28.22
2022-07-29T15:19:04.036Z,28.44
2022-07-29T15:21:33.402Z,28.31
2022-07-29T15:24:02.356Z,28.45
2022-07-29T15:26:29.011Z,28.44
2022-07-29T15:28:57.033Z,28.43
2022-07-29T15:31:23.755Z,28.39
2022-07-29T15:33:54.411Z,28.49
2022-07-29T15:36:51.002Z,28.64
2022-07-29T15:39:10.566Z,28.46
2022-07-29T15:41:37.563Z,28.52
2022-07-29T15:44:05.356Z,28.60
2022-07-29T15:46:50.726Z,28.45
2022-07-29T15:49:17.507Z,28.47
2022-07-29T15:51:44.613Z,28.31
2022-07-29T15:54:11.413Z,28.42
2022-07-29T15:56:38.859Z,28.42
2022-07-29T15:59:05.504Z,28.45
2022-07-29T16:01:32.330Z,28.56
2022-07-29T16:04:03.020Z,28.41
2022-07-29T16:06:30.592Z,28.32
2022-07-29T16:08:58.779Z,28.51
2022-07-29T16:11:26.908Z,28.15
2022-07-29T16:13:53.623Z,27.91
2022-07-29T16:16:20.360Z,27.81
2022-07-29T16:18:52.374Z,27.73
2022-07-29T16:21:19.059Z,27.73
2022-07-29T16:23:47.255Z,27.91
2022-07-29T16:26:14.021Z,28.00
2022-07-29T16:28:43.828Z,27.93
2022-07-29T16:31:10.890Z,27.58
2022-07-29T16:33:54.362Z,27.28
2022-07-29T16:36:22.806Z,26.92
2022-07-29T16:38:50.069Z,26.91
2022-07-29T16:41:17.633Z,26.93
2022-07-29T16:43:44.285Z,26.86
2022-07-29T16:46:13.109Z,26.77
2022-07-29T16:48:45.491Z,26.72
2022-07-29T16:51:14.241Z,26.72
2022-07-29T16:53:41.824Z,26.73
2022-07-29T16:56:12.704Z,26.64
2022-07-29T16:58:43.530Z,26.40
2022-07-29T17:01:10.817Z,26.24
2022-07-29T17:04:00.237Z,26.18
2022-07-29T17:06:28.671Z,26.08
2022-07-29T17:08:56.431Z,25.93
2022-07-29T17:11:23.060Z,25.96
2022-07-29T17:14:10.244Z,25.74
2022-07-29T17:16:37.411Z,25.68
2022-07-29T17:19:04.192Z,25.63
2022-07-29T17:21:30.835Z,25.44
2022-07-29T17:23:59.335Z,25.27
2022-07-29T17:26:27.472Z,25.20
2022-07-29T17:28:55.490Z,25.26
2022-07-29T17:31:22.242Z,25.18
2022-07-29T17:33:49.036Z,25.15
2022-07-29T17:36:24.962Z,25.05
2022-07-29T17:38:52.968Z,25.04
2022-07-29T17:41:20.403Z,24.99
2022-07-29T17:43:47.903Z,24.99
2022-07-29T17:46:16.484Z,24.90
2022-07-29T17:48:44.515Z,24.78
2022-07-29T17:51:11.811Z,24.70
2022-07-29T17:53:41.764Z,24.60
2022-07-29T17:56:08.398Z,24.55
2022-07-29T17:58:35.210Z,24.49
2022-07-29T18:01:01.856Z,24.32
2022-07-29T18:03:28.751Z,24.21
2022-07-29T18:05:55.351Z,24.12
2022-07-29T18:08:22.101Z,24.12
2022-07-29T18:10:48.718Z,24.14
2022-07-29T18:13:16.493Z,24.05
2022-07-29T18:15:45.080Z,23.91
2022-07-29T18:18:12.986Z,23.87
2022-07-29T18:20:39.792Z,23.72
2022-07-29T18:23:06.654Z,23.59
2022-07-29T18:25:33.325Z,23.42
2022-07-29T18:28:00.685Z,23.31
2022-07-29T18:30:28.806Z,23.17
2022-07-29T18:33:19.735Z,23.11
2022-07-29T18:35:43.961Z,22.96
2022-07-29T18:38:10.680Z,22.81
2022-07-29T18:40:39.979Z,22.71
2022-07-29T18:43:07.349Z,22.64
2022-07-29T18:45:34.590Z,22.47
2022-07-29T18:48:02.081Z,22.40
2022-07-29T18:50:29.890Z,22.19
2022-07-29T18:52:58.762Z,22.09
2022-07-29T18:55:26.469Z,21.95
2022-07-29T18:57:56.021Z,21.79
2022-07-29T19:00:24.125Z,21.72
2022-07-29T19:02:51.151Z,21.67
2022-07-29T19:05:18.533Z,21.46
2022-07-29T19:07:45.225Z,21.40
2022-07-29T19:10:12.345Z,21.24
2022-07-29T19:12:39.179Z,21.14
2022-07-29T19:15:07.601Z,21.03
2022-07-29T19:17:34.236Z,20.90
2022-07-29T19:20:00.986Z,20.83
2022-07-29T19:22:27.822Z,20.71
2022-07-29T19:24:54.586Z,20.60
2022-07-29T19:27:21.224Z,20.54
2022-07-29T19:29:48.004Z,20.40
2022-07-29T19:32:24.549Z,20.29
2022-07-29T19:35:11.492Z,20.21
2022-07-29T19:37:38.187Z,20.11
2022-07-29T19:40:06.170Z,20.00
2022-07-29T19:42:32.913Z,20.15
2022-07-29T19:44:59.654Z,20.01
2022-07-29T19:47:26.316Z,19.95
2022-07-29T19:49:53.016Z,19.79
2022-07-29T19:52:19.693Z,19.80
2022-07-29T19:54:46.341Z,19.73
2022-07-29T19:57:14.161Z,19.66
2022-07-29T19:59:41.182Z,19.64
2022-07-29T20:02:10.848Z,19.51
2022-07-29T20:04:37.916Z,19.51
2022-07-29T20:07:05.514Z,19.47
2022-07-29T20:09:32.169Z,19.38
2022-07-29T20:11:58.990Z,19.40
2022-07-29T20:14:25.830Z,19.31
2022-07-29T20:16:54.360Z,19.24
2022-07-29T20:19:21.132Z,19.29
2022-07-29T20:21:47.787Z,19.25
2022-07-29T20:24:14.521Z,19.20
2022-07-29T20:26:41.168Z,19.20
2022-07-29T20:29:07.910Z,19.20
2022-07-29T20:31:35.478Z,19.12
2022-07-29T20:34:02.374Z,19.21
2022-07-29T20:36:29.169Z,19.08
2022-07-29T20:38:56.210Z,19.09
2022-07-29T20:41:23.069Z,18.98
2022-07-29T20:43:49.898Z,18.97
2022-07-29T20:46:16.699Z,18.86
2022-07-29T20:48:43.504Z,18.82
2022-07-29T20:51:11.778Z,18.78
2022-07-29T20:53:39.957Z,18.76
2022-07-29T20:56:07.505Z,18.75
2022-07-29T20:58:34.626Z,18.70
2022-07-29T21:01:01.390Z,18.71
2022-07-29T21:03:28.035Z,18.68
2022-07-29T21:05:54.701Z,18.62
2022-07-29T21:08:21.440Z,18.60
2022-07-29T21:10:48.120Z,18.53
2022-07-29T21:13:14.844Z,18.48
2022-07-29T21:15:45.040Z,18.39
2022-07-29T21:18:26.991Z,18.28
2022-07-29T21:20:54.464Z,18.25
2022-07-29T21:23:21.100Z,18.21
2022-07-29T21:25:47.713Z,18.19
2022-07-29T21:28:26.535Z,18.15
2022-07-29T21:30:54.055Z,18.11
2022-07-29T21:33:20.839Z,18.12
2022-07-29T21:38:34.925Z,18.02
2022-07-29T21:41:02.305Z,17.96
2022-07-29T21:43:29.002Z,17.95
2022-07-29T21:45:59.595Z,17.91
2022-07-29T21:48:27.336Z,17.86
2022-07-29T21:50:54.546Z,17.95
2022-07-29T21:53:22.863Z,17.98
2022-07-29T21:55:55.296Z,17.93
2022-07-29T21:58:22.890Z,17.85
2022-07-29T22:00:49.606Z,17.79
2022-07-29T22:03:16.573Z,17.78
2022-07-29T22:05:43.582Z,17.73
2022-07-29T22:08:10.563Z,17.69
2022-07-29T22:10:37.236Z,17.69
2022-07-29T22:13:04.032Z,17.65
2022-07-29T22:15:31.191Z,17.72
2022-07-29T22:17:58.204Z,17.77
2022-07-29T22:20:25.314Z,17.64
2022-07-29T22:22:52.203Z,17.70
2022-07-29T22:25:18.917Z,17.61
2022-07-29T22:27:45.602Z,17.55
2022-07-29T22:30:12.540Z,17.34
2022-07-29T22:32:39.266Z,17.38
2022-07-29T22:35:06.151Z,17.27
2022-07-29T22:37:32.982Z,17.22
2022-07-29T22:39:59.817Z,17.09
2022-07-29T22:42:26.538Z,17.08
2022-07-29T22:44:53.175Z,17.08
2022-07-29T22:47:45.975Z,16.94
2022-07-29T22:50:06.775Z,16.92
2022-07-29T22:52:33.385Z,16.98
2022-07-29T22:55:00.253Z,16.92
2022-07-29T22:57:27.052Z,16.86
2022-07-29T22:59:53.748Z,16.88
2022-07-29T23:02:20.375Z,16.75
2022-07-29T23:04:46.978Z,16.77
2022-07-29T23:07:13.693Z,16.77
2022-07-29T23:09:40.320Z,16.65
2022-07-29T23:12:07.222Z,16.57
2022-07-29T23:14:33.830Z,16.52
2022-07-29T23:17:00.641Z,16.58
2022-07-29T23:19:27.900Z,16.50
2022-07-29T23:21:54.564Z,16.61
2022-07-29T23:24:21.262Z,16.57
2022-07-29T23:26:47.986Z,16.55
2022-07-29T23:29:14.621Z,16.57
2022-07-29T23:31:41.748Z,16.65
2022-07-29T23:34:09.285Z,16.49
2022-07-29T23:36:35.928Z,16.44
2022-07-29T23:39:02.726Z,16.44
2022-07-29T23:41:31.746Z,16.40
2022-07-29T23:43:58.350Z,16.35
2022-07-29T23:46:24.975Z,16.43
2022-07-29T23:48:51.697Z,16.46
2022-07-29T23:51:19.503Z,16.32
2022-07-29T23:53:54.020Z,16.61
2022-07-29T23:56:21.117Z,16.57
2022-07-29T23:58:47.848Z,16.42
